createdAt,value
2023-04-12T00:00:07.589Z,1006.90
2023-04-12T00:01:07.591Z,1006.88
2023-04-12T00:02:07.651Z,1006.85
2023-04-12T00:03:07.799Z,1006.87
2023-04-12T00:04:07.863Z,1006.87
2023-04-12T00:05:07.681Z,1006.88
2023-04-12T00:06:07.634Z,1006.88
2023-04-12T00:07:07.646Z,1006.85
2023-04-12T00:08:07.654Z,1006.84
2023-04-12T00:09:07.673Z,1006.80
2023-04-12T00:10:07.682Z,1006.80
2023-04-12T00:11:07.689Z,1006.85
2023-04-12T00:12:07.691Z,1006.78
2023-04-12T00:13:07.702Z,1006.80
2023-04-12T00:14:07.709Z,1006.73
2023-04-12T00:15:08.301Z,1006.77
2023-04-12T00:16:07.796Z,1006.72
2023-04-12T00:17:07.740Z,1006.72
2023-04-12T00:18:07.746Z,1006.70
2023-04-12T00:19:07.755Z,1006.68
2023-04-12T00:20:07.792Z,1006.68
2023-04-12T00:21:07.772Z,1006.68
2023-04-12T00:22:07.785Z,1006.72
2023-04-12T00:23:07.793Z,1006.73
2023-04-12T00:24:07.806Z,1006.76
2023-04-12T00:25:07.810Z,1006.80
2023-04-12T00:26:07.819Z,1006.78
2023-04-12T00:27:07.829Z,1006.76
2023-04-12T00:28:07.837Z,1006.76
2023-04-12T00:29:07.845Z,1006.73
2023-04-12T00:30:07.859Z,1006.78
2023-04-12T00:31:07.891Z,1006.75
2023-04-12T00:32:07.888Z,1006.69
2023-04-12T00:33:07.889Z,1006.73
2023-04-12T00:34:07.899Z,1006.71
2023-04-12T00:35:07.908Z,1006.68
2023-04-12T00:36:07.963Z,1006.67
2023-04-12T00:37:07.925Z,1006.69
2023-04-12T00:38:07.932Z,1006.65
2023-04-12T00:39:07.943Z,1006.68
2023-04-12T00:40:07.949Z,1006.71
2023-04-12T00:41:07.958Z,1006.68
2023-04-12T00:42:07.965Z,1006.68
2023-04-12T00:43:07.974Z,1006.70
2023-04-12T00:44:07.984Z,1006.72
2023-04-12T00:45:07.992Z,1006.71
2023-04-12T00:46:08.047Z,1006.70
2023-04-12T00:47:08.112Z,1006.71
2023-04-12T00:48:08.026Z,1006.71
2023-04-12T00:49:08.031Z,1006.71
2023-04-12T00:50:08.044Z,1006.72
2023-04-12T00:51:08.048Z,1006.68
2023-04-12T00:52:08.057Z,1006.68
2023-04-12T00:53:08.069Z,1006.61
2023-04-12T00:54:08.075Z,1006.67
2023-04-12T00:55:08.084Z,1006.70
2023-04-12T00:56:08.091Z,1006.74
2023-04-12T00:57:08.101Z,1006.74
2023-04-12T00:58:08.115Z,1006.71
2023-04-12T00:59:08.127Z,1006.68
2023-04-12T01:00:08.134Z,1006.68
2023-04-12T01:01:08.159Z,1006.67
2023-04-12T01:02:08.243Z,1006.68
2023-04-12T01:03:08.365Z,1006.67
2023-04-12T01:04:08.179Z,1006.65
2023-04-12T01:05:08.175Z,1006.62
2023-04-12T01:06:08.193Z,1006.62
2023-04-12T01:07:08.208Z,1006.61
2023-04-12T01:08:08.217Z,1006.58
2023-04-12T01:09:08.221Z,1006.51
2023-04-12T01:10:08.230Z,1006.49
2023-04-12T01:11:08.227Z,1006.50
2023-04-12T01:12:08.235Z,1006.48
2023-04-12T01:13:08.247Z,1006.47
2023-04-12T01:14:08.262Z,1006.43
2023-04-12T01:15:08.290Z,1006.43
2023-04-12T01:16:08.316Z,1006.42
2023-04-12T01:17:08.289Z,1006.45
2023-04-12T01:18:08.291Z,1006.35
2023-04-12T01:19:08.300Z,1006.32
2023-04-12T01:20:08.310Z,1006.38
2023-04-12T01:21:08.332Z,1006.32
2023-04-12T01:22:08.341Z,1006.32
2023-04-12T01:23:08.356Z,1006.32
2023-04-12T01:24:08.347Z,1006.29
2023-04-12T01:25:08.354Z,1006.28
2023-04-12T01:26:08.414Z,1006.29
2023-04-12T01:27:08.370Z,1006.29
2023-04-12T01:28:08.382Z,1006.31
2023-04-12T01:29:08.408Z,1006.34
2023-04-12T01:30:08.455Z,1006.35
2023-04-12T01:31:08.412Z,1006.34
2023-04-12T01:32:08.416Z,1006.36
2023-04-12T01:33:08.446Z,1006.34
2023-04-12T01:34:08.433Z,1006.34
2023-04-12T01:35:08.441Z,1006.30
2023-04-12T01:36:08.493Z,1006.30
2023-04-12T01:37:08.456Z,1006.30
2023-04-12T01:38:08.468Z,1006.29
2023-04-12T01:39:08.478Z,1006.23
2023-04-12T01:40:08.490Z,1006.25
2023-04-12T01:41:08.519Z,1006.25
2023-04-12T01:42:08.505Z,1006.20
2023-04-12T01:43:08.518Z,1006.23
2023-04-12T01:44:08.524Z,1006.24
2023-04-12T01:45:08.547Z,1006.20
2023-04-12T01:46:08.599Z,1006.22
2023-04-12T01:47:08.549Z,1006.21
2023-04-12T01:48:08.612Z,1006.18
2023-04-12T01:49:08.565Z,1006.17
2023-04-12T01:50:08.580Z,1006.19
2023-04-12T01:51:08.582Z,1006.18
2023-04-12T01:52:08.596Z,1006.19
2023-04-12T01:53:08.604Z,1006.17
2023-04-12T01:54:08.609Z,1006.18
2023-04-12T01:55:08.631Z,1006.23
2023-04-12T01:56:08.636Z,1006.22
2023-04-12T01:57:08.690Z,1006.18
2023-04-12T01:58:08.666Z,1006.20
2023-04-12T01:59:08.656Z,1006.22
2023-04-12T02:00:08.665Z,1006.23
2023-04-12T02:01:08.729Z,1006.26
2023-04-12T02:02:08.764Z,1006.22
2023-04-12T02:03:08.855Z,1006.18
2023-04-12T02:04:08.760Z,1006.22
2023-04-12T02:05:08.706Z,1006.22
2023-04-12T02:06:08.719Z,1006.18
2023-04-12T02:07:08.755Z,1006.14
2023-04-12T02:08:08.731Z,1006.12
2023-04-12T02:09:08.765Z,1006.09
2023-04-12T02:10:08.759Z,1006.11
2023-04-12T02:11:08.762Z,1006.05
2023-04-12T02:12:08.768Z,1006.04
2023-04-12T02:13:08.776Z,1006.01
2023-04-12T02:14:08.786Z,1006.07
2023-04-12T02:15:08.815Z,1006.03
2023-04-12T02:16:08.845Z,1006.07
2023-04-12T02:17:08.804Z,1006.00
2023-04-12T02:18:08.840Z,1006.04
2023-04-12T02:19:08.826Z,1006.02
2023-04-12T02:20:08.833Z,1006.03
2023-04-12T02:21:08.841Z,1005.97
2023-04-12T02:22:08.868Z,1005.98
2023-04-12T02:23:08.876Z,1005.92
2023-04-12T02:24:08.868Z,1005.85
2023-04-12T02:25:08.879Z,1005.89
2023-04-12T02:26:08.888Z,1005.90
2023-04-12T02:27:08.897Z,1005.88
2023-04-12T02:28:08.903Z,1005.88
2023-04-12T02:29:08.914Z,1005.90
2023-04-12T02:30:08.922Z,1005.88
2023-04-12T02:31:09.016Z,1005.90
2023-04-12T02:32:08.940Z,1005.89
2023-04-12T02:33:09.035Z,1005.87
2023-04-12T02:34:08.955Z,1005.90
2023-04-12T02:35:08.960Z,1005.87
2023-04-12T02:36:08.971Z,1005.89
2023-04-12T02:37:08.977Z,1005.90
2023-04-12T02:38:08.986Z,1005.83
2023-04-12T02:39:08.999Z,1005.83
2023-04-12T02:40:09.002Z,1005.83
2023-04-12T02:41:09.017Z,1005.81
2023-04-12T02:42:09.022Z,1005.76
2023-04-12T02:43:09.035Z,1005.72
2023-04-12T02:44:09.043Z,1005.69
2023-04-12T02:45:09.050Z,1005.69
2023-04-12T02:46:09.084Z,1005.69
2023-04-12T02:47:09.062Z,1005.63
2023-04-12T02:48:09.120Z,1005.62
2023-04-12T02:49:09.079Z,1005.60
2023-04-12T02:50:09.087Z,1005.60
2023-04-12T02:51:09.095Z,1005.60
2023-04-12T02:52:09.103Z,1005.59
2023-04-12T02:53:09.112Z,1005.57
2023-04-12T02:54:09.123Z,1005.59
2023-04-12T02:55:09.131Z,1005.59
2023-04-12T02:56:09.136Z,1005.56
2023-04-12T02:57:09.144Z,1005.56
2023-04-12T02:58:09.155Z,1005.58
2023-04-12T02:59:09.168Z,1005.55
2023-04-12T03:00:09.174Z,1005.58
2023-04-12T03:01:09.233Z,1005.53
2023-04-12T03:02:09.326Z,1005.52
2023-04-12T03:03:09.411Z,1005.51
2023-04-12T03:04:09.347Z,1005.50
2023-04-12T03:05:09.212Z,1005.48
2023-04-12T03:06:09.240Z,1005.43
2023-04-12T03:07:09.231Z,1005.46
2023-04-12T03:08:09.239Z,1005.45
2023-04-12T03:09:09.249Z,1005.44
2023-04-12T03:10:09.263Z,1005.40
2023-04-12T03:11:09.266Z,1005.37
2023-04-12T03:12:09.280Z,1005.35
2023-04-12T03:13:09.288Z,1005.34
2023-04-12T03:14:09.301Z,1005.33
2023-04-12T03:15:09.295Z,1005.34
2023-04-12T03:16:09.345Z,1005.34
2023-04-12T03:17:09.316Z,1005.34
2023-04-12T03:18:09.354Z,1005.37
2023-04-12T03:19:09.326Z,1005.37
2023-04-12T03:20:09.341Z,1005.34
2023-04-12T03:21:09.345Z,1005.34
2023-04-12T03:22:09.354Z,1005.35
2023-04-12T03:23:09.364Z,1005.33
2023-04-12T03:24:09.370Z,1005.33
2023-04-12T03:25:09.380Z,1005.28
2023-04-12T03:26:09.382Z,1005.28
2023-04-12T03:27:09.406Z,1005.31
2023-04-12T03:28:09.404Z,1005.23
2023-04-12T03:29:11.199Z,1005.26
2023-04-12T03:30:09.417Z,1005.25
2023-04-12T03:31:09.458Z,1005.24
2023-04-12T03:32:09.433Z,1005.23
2023-04-12T03:33:09.452Z,1005.18
2023-04-12T03:34:09.450Z,1005.14
2023-04-12T03:35:09.473Z,1005.14
2023-04-12T03:36:09.466Z,1005.06
2023-04-12T03:37:09.547Z,1005.04
2023-04-12T03:38:09.485Z,1005.03
2023-04-12T03:39:09.492Z,1004.95
2023-04-12T03:40:09.499Z,1004.92
2023-04-12T03:41:09.502Z,1004.96
2023-04-12T03:42:15.838Z,1004.92
2023-04-12T03:43:09.527Z,1004.93
2023-04-12T03:44:09.534Z,1004.91
2023-04-12T03:45:09.538Z,1004.87
2023-04-12T03:46:09.585Z,1004.86
2023-04-12T03:47:09.560Z,1004.87
2023-04-12T03:48:09.628Z,1004.88
2023-04-12T03:49:09.576Z,1004.85
2023-04-12T03:50:12.329Z,1004.85
2023-04-12T03:51:09.587Z,1004.85
2023-04-12T03:52:09.593Z,1004.80
2023-04-12T03:53:09.602Z,1004.85
2023-04-12T03:54:09.613Z,1004.81
2023-04-12T03:55:09.636Z,1004.80
2023-04-12T03:56:09.632Z,1004.82
2023-04-12T03:57:09.635Z,1004.83
2023-04-12T03:58:09.643Z,1004.80
2023-04-12T03:59:09.652Z,1004.79
2023-04-12T04:00:09.669Z,1004.76
2023-04-12T04:01:09.672Z,1004.79
2023-04-12T04:02:09.732Z,1004.72
2023-04-12T04:03:09.772Z,1004.71
2023-04-12T04:04:09.816Z,1004.71
2023-04-12T04:05:09.766Z,1004.71
2023-04-12T04:06:09.709Z,1004.70
2023-04-12T04:07:09.715Z,1004.66
2023-04-12T04:08:09.730Z,1004.66
2023-04-12T04:09:09.737Z,1004.58
2023-04-12T04:10:09.740Z,1004.66
2023-04-12T04:11:09.756Z,1004.62
2023-04-12T04:12:09.758Z,1004.56
2023-04-12T04:13:09.764Z,1004.65
2023-04-12T04:14:09.773Z,1004.66
2023-04-12T04:15:09.781Z,1004.65
2023-04-12T04:16:09.887Z,1004.64
2023-04-12T04:17:09.802Z,1004.65
2023-04-12T04:18:09.811Z,1004.70
2023-04-12T04:19:09.819Z,1004.69
2023-04-12T04:20:09.829Z,1004.71
2023-04-12T04:21:09.846Z,1004.73
2023-04-12T04:22:09.838Z,1004.77
2023-04-12T04:23:09.845Z,1004.76
2023-04-12T04:24:09.853Z,1004.75
2023-04-12T04:25:09.859Z,1004.79
2023-04-12T04:26:09.876Z,1004.78
2023-04-12T04:27:09.885Z,1004.78
2023-04-12T04:28:09.894Z,1004.76
2023-04-12T04:29:09.893Z,1004.74
2023-04-12T04:30:09.903Z,1004.71
2023-04-12T04:31:09.911Z,1004.72
2023-04-12T04:32:10.075Z,1004.70
2023-04-12T04:33:10.064Z,1004.70
2023-04-12T04:34:11.607Z,1004.68
2023-04-12T04:35:09.946Z,1004.68
2023-04-12T04:36:09.948Z,1004.69
2023-04-12T04:37:09.959Z,1004.70
2023-04-12T04:38:09.969Z,1004.68
2023-04-12T04:39:09.980Z,1004.65
2023-04-12T04:40:09.982Z,1004.65
2023-04-12T04:41:09.994Z,1004.62
2023-04-12T04:42:10.003Z,1004.60
2023-04-12T04:43:10.012Z,1004.59
2023-04-12T04:44:10.019Z,1004.62
2023-04-12T04:45:10.027Z,1004.66
2023-04-12T04:46:10.074Z,1004.59
2023-04-12T04:47:10.042Z,1004.61
2023-04-12T04:48:10.049Z,1004.59
2023-04-12T04:49:10.058Z,1004.62
2023-04-12T04:50:10.067Z,1004.63
2023-04-12T04:51:10.074Z,1004.62
2023-04-12T04:52:10.086Z,1004.62
2023-04-12T04:53:10.090Z,1004.63
2023-04-12T04:54:10.099Z,1004.61
2023-04-12T04:55:11.276Z,1004.58
2023-04-12T04:56:10.114Z,1004.57
2023-04-12T04:57:10.119Z,1004.55
2023-04-12T04:58:10.134Z,1004.53
2023-04-12T04:59:10.140Z,1004.49
2023-04-12T05:00:10.148Z,1004.44
2023-04-12T05:01:10.176Z,1004.43
2023-04-12T05:02:10.179Z,1004.42
2023-04-12T05:03:10.295Z,1004.37
2023-04-12T05:04:10.236Z,1004.39
2023-04-12T05:05:10.191Z,1004.36
2023-04-12T05:06:10.210Z,1004.39
2023-04-12T05:07:10.204Z,1004.40
2023-04-12T05:08:10.217Z,1004.40
2023-04-12T05:09:10.238Z,1004.41
2023-04-12T05:10:10.228Z,1004.42
2023-04-12T05:11:10.239Z,1004.45
2023-04-12T05:12:10.252Z,1004.39
2023-04-12T05:13:10.261Z,1004.38
2023-04-12T05:14:12.396Z,1004.37
2023-04-12T05:15:11.973Z,1004.38
2023-04-12T05:16:10.360Z,1004.37
2023-04-12T05:17:10.284Z,1004.37
2023-04-12T05:18:10.295Z,1004.33
2023-04-12T05:19:10.303Z,1004.34
2023-04-12T05:20:10.304Z,1004.36
2023-04-12T05:21:10.316Z,1004.27
2023-04-12T05:22:10.332Z,1004.29
2023-04-12T05:23:10.333Z,1004.26
2023-04-12T05:24:10.339Z,1004.30
2023-04-12T05:25:10.347Z,1004.29
2023-04-12T05:26:10.356Z,1004.32
2023-04-12T05:27:10.367Z,1004.31
2023-04-12T05:28:10.377Z,1004.31
2023-04-12T05:29:10.382Z,1004.29
2023-04-12T05:30:10.392Z,1004.30
2023-04-12T05:31:10.455Z,1004.29
2023-04-12T05:32:10.415Z,1004.23
2023-04-12T05:33:10.427Z,1004.21
2023-04-12T05:34:10.425Z,1004.19
2023-04-12T05:35:10.431Z,1004.21
2023-04-12T05:36:10.442Z,1004.17
2023-04-12T05:37:10.452Z,1004.18
2023-04-12T05:38:10.461Z,1004.17
2023-04-12T05:39:10.470Z,1004.16
2023-04-12T05:40:10.481Z,1004.18
2023-04-12T05:41:10.488Z,1004.12
2023-04-12T05:42:10.498Z,1004.12
2023-04-12T05:43:10.509Z,1004.08
2023-04-12T05:44:10.514Z,1004.06
2023-04-12T05:45:10.523Z,1004.07
2023-04-12T05:46:10.551Z,1004.06
2023-04-12T05:47:10.544Z,1004.00
2023-04-12T05:48:10.682Z,1004.03
2023-04-12T05:49:10.558Z,1004.00
2023-04-12T05:50:10.568Z,1003.99
2023-04-12T05:51:10.579Z,1003.97
2023-04-12T05:52:10.581Z,1003.95
2023-04-12T05:53:10.594Z,1003.95
2023-04-12T05:54:10.612Z,1003.89
2023-04-12T05:55:10.614Z,1003.87
2023-04-12T05:56:10.620Z,1003.85
2023-04-12T05:57:10.630Z,1003.84
2023-04-12T05:58:10.639Z,1003.84
2023-04-12T05:59:10.649Z,1003.83
2023-04-12T06:00:10.660Z,1003.80
2023-04-12T06:01:10.702Z,1003.80
2023-04-12T06:02:10.750Z,1003.75
2023-04-12T06:03:10.786Z,1003.79
2023-04-12T06:04:10.856Z,1003.74
2023-04-12T06:05:10.748Z,1003.72
2023-04-12T06:06:10.709Z,1003.73
2023-04-12T06:07:10.725Z,1003.74
2023-04-12T06:08:10.734Z,1003.73
2023-04-12T06:09:10.745Z,1003.68
2023-04-12T06:10:10.753Z,1003.65
2023-04-12T06:11:10.765Z,1003.61
2023-04-12T06:12:10.772Z,1003.58
2023-04-12T06:13:10.783Z,1003.58
2023-04-12T06:14:11.848Z,1003.56
2023-04-12T06:15:10.802Z,1003.55
2023-04-12T06:16:10.874Z,1003.59
2023-04-12T06:17:10.818Z,1003.53
2023-04-12T06:18:10.835Z,1003.50
2023-04-12T06:19:10.845Z,1003.48
2023-04-12T06:20:10.850Z,1003.49
2023-04-12T06:21:10.863Z,1003.46
2023-04-12T06:22:10.870Z,1003.42
2023-04-12T06:23:10.882Z,1003.45
2023-04-12T06:24:10.896Z,1003.36
2023-04-12T06:25:10.898Z,1003.42
2023-04-12T06:26:10.909Z,1003.41
2023-04-12T06:27:10.918Z,1003.42
2023-04-12T06:28:10.928Z,1003.38
2023-04-12T06:29:10.936Z,1003.38
2023-04-12T06:30:10.963Z,1003.38
2023-04-12T06:31:11.053Z,1003.37
2023-04-12T06:32:10.964Z,1003.32
2023-04-12T06:33:11.009Z,1003.29
2023-04-12T06:34:11.004Z,1003.23
2023-04-12T06:35:11.000Z,1003.27
2023-04-12T06:36:11.051Z,1003.26
2023-04-12T06:37:11.015Z,1003.27
2023-04-12T06:38:11.021Z,1003.18
2023-04-12T06:39:11.058Z,1003.19
2023-04-12T06:40:11.047Z,1003.25
2023-04-12T06:41:11.053Z,1003.25
2023-04-12T06:42:13.249Z,1003.27
2023-04-12T06:43:11.081Z,1003.23
2023-04-12T06:44:11.088Z,1003.22
2023-04-12T06:45:11.099Z,1003.20
2023-04-12T06:46:11.106Z,1003.23
2023-04-12T06:47:11.148Z,1003.26
2023-04-12T06:48:11.130Z,1003.19
2023-04-12T06:49:11.160Z,1003.15
2023-04-12T06:50:11.199Z,1003.15
2023-04-12T06:51:11.168Z,1003.16
2023-04-12T06:52:11.187Z,1003.16
2023-04-12T06:53:11.193Z,1003.15
2023-04-12T06:54:11.203Z,1003.11
2023-04-12T06:55:11.216Z,1003.09
2023-04-12T06:56:11.226Z,1003.06
2023-04-12T06:57:11.246Z,1003.07
2023-04-12T06:58:11.253Z,1003.06
2023-04-12T06:59:11.266Z,1003.09
2023-04-12T07:00:11.292Z,1003.05
2023-04-12T07:01:11.397Z,1003.07
2023-04-12T07:02:11.372Z,1003.01
2023-04-12T07:03:11.437Z,1003.00
2023-04-12T07:04:11.399Z,1003.04
2023-04-12T07:05:11.349Z,1002.97
2023-04-12T07:06:23.664Z,1002.98
2023-04-12T07:07:11.384Z,1002.98
2023-04-12T07:08:11.399Z,1002.95
2023-04-12T07:09:11.416Z,1002.94
2023-04-12T07:10:11.425Z,1002.96
2023-04-12T07:11:20.940Z,1002.90
2023-04-12T07:12:11.454Z,1002.86
2023-04-12T07:13:11.471Z,1002.90
2023-04-12T07:14:11.491Z,1002.93
2023-04-12T07:15:11.507Z,1002.87
2023-04-12T07:16:11.552Z,1002.86
2023-04-12T07:17:11.544Z,1002.89
2023-04-12T07:18:11.546Z,1002.84
2023-04-12T07:19:11.567Z,1002.81
2023-04-12T07:20:11.578Z,1002.84
2023-04-12T07:21:11.593Z,1002.76
2023-04-12T07:22:13.467Z,1002.79
2023-04-12T07:23:11.627Z,1002.84
2023-04-12T07:24:11.645Z,1002.82
2023-04-12T07:25:11.665Z,1002.84
2023-04-12T07:26:11.684Z,1002.83
2023-04-12T07:27:11.696Z,1002.76
2023-04-12T07:28:11.708Z,1002.76
2023-04-12T07:29:11.727Z,1002.74
2023-04-12T07:30:11.764Z,1002.72
2023-04-12T07:31:11.758Z,1002.71
2023-04-12T07:32:11.775Z,1002.68
2023-04-12T07:33:19.275Z,1002.67
2023-04-12T07:34:11.942Z,1002.60
2023-04-12T07:35:11.825Z,1002.59
2023-04-12T07:36:11.978Z,1002.60
2023-04-12T07:37:11.872Z,1002.61
2023-04-12T07:38:11.877Z,1002.55
2023-04-12T07:39:11.909Z,1002.58
2023-04-12T07:40:11.909Z,1002.54
2023-04-12T07:41:11.927Z,1002.45
2023-04-12T07:42:11.944Z,1002.50
2023-04-12T07:43:11.964Z,1002.46
2023-04-12T07:44:11.990Z,1002.50
2023-04-12T07:45:11.998Z,1002.44
2023-04-12T07:46:12.063Z,1002.54
2023-04-12T07:47:12.038Z,1002.46
2023-04-12T07:48:12.055Z,1002.41
2023-04-12T07:49:12.075Z,1002.47
2023-04-12T07:50:13.269Z,1002.40
2023-04-12T07:51:12.109Z,1002.40
2023-04-12T07:52:12.125Z,1002.38
2023-04-12T07:53:12.152Z,1002.39
2023-04-12T07:54:12.159Z,1002.31
2023-04-12T07:55:12.192Z,1002.38
2023-04-12T07:56:12.207Z,1002.32
2023-04-12T07:57:12.214Z,1002.35
2023-04-12T07:58:12.235Z,1002.21
2023-04-12T07:59:12.255Z,1002.22
2023-04-12T08:00:12.274Z,1002.17
2023-04-12T08:01:12.298Z,1002.16
2023-04-12T08:02:12.402Z,1002.17
2023-04-12T08:03:12.386Z,1002.13
2023-04-12T08:04:12.482Z,1002.17
2023-04-12T08:05:12.366Z,1002.19
2023-04-12T08:06:12.533Z,1002.18
2023-04-12T08:07:12.397Z,1002.19
2023-04-12T08:08:12.415Z,1002.15
2023-04-12T08:09:12.433Z,1002.16
2023-04-12T08:10:12.449Z,1002.17
2023-04-12T08:11:12.474Z,1002.09
2023-04-12T08:12:12.483Z,1002.13
2023-04-12T08:13:12.499Z,1002.10
2023-04-12T08:14:12.520Z,1002.09
2023-04-12T08:15:12.533Z,1002.12
2023-04-12T08:16:12.564Z,1002.05
2023-04-12T08:17:12.568Z,1002.04
2023-04-12T08:18:12.582Z,1001.97
2023-04-12T08:19:12.610Z,1001.92
2023-04-12T08:20:12.614Z,1001.97
2023-04-12T08:21:12.635Z,1001.96
2023-04-12T08:22:13.725Z,1002.00
2023-04-12T08:23:12.670Z,1001.94
2023-04-12T08:24:12.678Z,1001.91
2023-04-12T08:25:12.694Z,1001.87
2023-04-12T08:26:12.709Z,1001.87
2023-04-12T08:27:12.733Z,1001.87
2023-04-12T08:28:12.742Z,1001.87
2023-04-12T08:29:12.759Z,1001.86
2023-04-12T08:30:12.787Z,1001.84
2023-04-12T08:31:12.854Z,1001.85
2023-04-12T08:32:12.856Z,1001.85
2023-04-12T08:33:12.819Z,1001.80
2023-04-12T08:34:12.831Z,1001.76
2023-04-12T08:35:12.851Z,1001.76
2023-04-12T08:36:12.928Z,1001.77
2023-04-12T08:37:12.886Z,1001.73
2023-04-12T08:38:12.902Z,1001.69
2023-04-12T08:39:12.915Z,1001.70
2023-04-12T08:40:12.930Z,1001.75
2023-04-12T08:41:13.241Z,1001.67
2023-04-12T08:42:12.958Z,1001.69
2023-04-12T08:43:12.979Z,1001.56
2023-04-12T08:44:12.992Z,1001.65
2023-04-12T08:45:13.030Z,1001.68
2023-04-12T08:46:13.110Z,1001.66
2023-04-12T08:47:13.038Z,1001.64
2023-04-12T08:48:13.054Z,1001.61
2023-04-12T08:49:13.061Z,1001.62
2023-04-12T08:50:13.081Z,1001.57
2023-04-12T08:51:13.101Z,1001.56
2023-04-12T08:52:13.109Z,1001.56
2023-04-12T08:53:13.152Z,1001.54
2023-04-12T08:54:13.139Z,1001.64
2023-04-12T08:55:13.154Z,1001.58
2023-04-12T08:56:13.268Z,1001.59
2023-04-12T08:57:13.196Z,1001.60
2023-04-12T08:58:13.207Z,1001.65
2023-04-12T08:59:13.215Z,1001.58
2023-04-12T09:00:13.233Z,1001.55
2023-04-12T09:01:13.257Z,1001.62
2023-04-12T09:02:13.393Z,1001.53
2023-04-12T09:03:13.418Z,1001.54
2023-04-12T09:04:13.395Z,1001.55
2023-04-12T09:05:13.372Z,1001.55
2023-04-12T09:06:13.394Z,1001.49
2023-04-12T09:07:13.340Z,1001.47
2023-04-12T09:08:13.349Z,1001.45
2023-04-12T09:09:13.373Z,1001.47
2023-04-12T09:10:13.403Z,1001.43
2023-04-12T09:11:13.401Z,1001.43
2023-04-12T09:12:13.419Z,1001.34
2023-04-12T09:13:13.443Z,1001.28
2023-04-12T09:14:13.459Z,1001.28
2023-04-12T09:15:13.782Z,1001.31
2023-04-12T09:16:13.492Z,1001.28
2023-04-12T09:17:13.497Z,1001.23
2023-04-12T09:18:15.882Z,1001.27
2023-04-12T09:19:13.532Z,1001.22
2023-04-12T09:20:13.541Z,1001.24
2023-04-12T09:21:13.552Z,1001.23
2023-04-12T09:22:13.573Z,1001.18
2023-04-12T09:23:13.589Z,1001.12
2023-04-12T09:24:14.829Z,1001.24
2023-04-12T09:25:13.622Z,1001.11
2023-04-12T09:26:13.654Z,1001.10
2023-04-12T09:27:13.666Z,1001.06
2023-04-12T09:28:13.680Z,1000.98
2023-04-12T09:29:13.679Z,1000.96
2023-04-12T09:30:13.700Z,1001.02
2023-04-12T09:31:13.736Z,1000.97
2023-04-12T09:32:13.737Z,1000.91
2023-04-12T09:33:13.744Z,1000.93
2023-04-12T09:34:13.753Z,1000.92
2023-04-12T09:35:13.779Z,1000.94
2023-04-12T09:36:13.864Z,1000.80
2023-04-12T09:37:13.810Z,1000.80
2023-04-12T09:38:13.817Z,1000.79
2023-04-12T09:39:13.845Z,1000.76
2023-04-12T09:40:13.848Z,1000.76
2023-04-12T09:41:13.865Z,1000.77
2023-04-12T09:42:29.689Z,1000.71
2023-04-12T09:43:13.903Z,1000.66
2023-04-12T09:44:13.919Z,1000.64
2023-04-12T09:45:13.929Z,1000.59
2023-04-12T09:46:13.998Z,1000.55
2023-04-12T09:47:13.967Z,1000.58
2023-04-12T09:48:14.038Z,1000.60
2023-04-12T09:49:13.996Z,1000.51
2023-04-12T09:50:14.021Z,1000.54
2023-04-12T09:51:14.038Z,1000.56
2023-04-12T09:52:14.040Z,1000.52
2023-04-12T09:53:14.065Z,1000.48
2023-04-12T09:54:14.084Z,1000.52
2023-04-12T09:55:14.118Z,1000.47
2023-04-12T09:56:14.103Z,1000.40
2023-04-12T09:57:14.121Z,1000.41
2023-04-12T09:58:14.144Z,1000.37
2023-04-12T09:59:14.155Z,1000.42
2023-04-12T10:00:14.253Z,1000.28
2023-04-12T10:01:15.838Z,1000.34
2023-04-12T10:02:14.362Z,1000.26
2023-04-12T10:03:14.427Z,1000.22
2023-04-12T10:04:14.475Z,1000.24
2023-04-12T10:05:14.526Z,1000.17
2023-04-12T10:06:14.276Z,1000.25
2023-04-12T10:07:15.176Z,1000.19
2023-04-12T10:08:14.305Z,1000.15
2023-04-12T10:09:14.314Z,1000.10
2023-04-12T10:10:14.333Z,1000.09
2023-04-12T10:11:14.361Z,1000.10
2023-04-12T10:12:14.363Z,1000.06
2023-04-12T10:13:14.409Z,1000.05
2023-04-12T10:14:17.047Z,999.99
2023-04-12T10:15:14.421Z,999.97
2023-04-12T10:16:14.509Z,999.90
2023-04-12T10:17:14.466Z,999.88
2023-04-12T10:18:14.498Z,999.89
2023-04-12T10:19:14.490Z,999.82
2023-04-12T10:20:14.517Z,999.78
2023-04-12T10:21:14.512Z,999.82
2023-04-12T10:22:14.536Z,999.81
2023-04-12T10:23:14.553Z,999.79
2023-04-12T10:24:14.582Z,999.78
2023-04-12T10:25:14.581Z,999.72
2023-04-12T10:26:14.599Z,999.77
2023-04-12T10:27:14.629Z,999.75
2023-04-12T10:28:14.669Z,999.67
2023-04-12T10:29:14.681Z,999.74
2023-04-12T10:30:14.696Z,999.61
2023-04-12T10:31:14.758Z,999.63
2023-04-12T10:32:14.813Z,999.63
2023-04-12T10:33:14.805Z,999.69
2023-04-12T10:34:14.752Z,999.64
2023-04-12T10:35:14.787Z,999.62
2023-04-12T10:36:14.818Z,999.60
2023-04-12T10:37:14.825Z,999.52
2023-04-12T10:38:14.832Z,999.52
2023-04-12T10:39:14.878Z,999.56
2023-04-12T10:40:14.858Z,999.49
2023-04-12T10:41:14.893Z,999.49
2023-04-12T10:42:14.903Z,999.42
2023-04-12T10:43:14.925Z,999.41
2023-04-12T10:44:14.970Z,999.41
2023-04-12T10:45:14.969Z,999.42
2023-04-12T10:46:15.049Z,999.47
2023-04-12T10:47:15.081Z,999.45
2023-04-12T10:48:15.093Z,999.45
2023-04-12T10:49:15.050Z,999.40
2023-04-12T10:50:15.177Z,999.37
2023-04-12T10:51:15.154Z,999.35
2023-04-12T10:52:15.155Z,999.40
2023-04-12T10:53:15.158Z,999.38
2023-04-12T10:54:15.164Z,999.31
2023-04-12T10:55:15.201Z,999.28
2023-04-12T10:56:15.262Z,999.14
2023-04-12T10:57:15.240Z,999.23
2023-04-12T10:58:15.288Z,999.12
2023-04-12T10:59:15.296Z,999.08
2023-04-12T11:00:15.405Z,999.14
2023-04-12T11:01:15.378Z,999.05
2023-04-12T11:02:15.493Z,999.04
2023-04-12T11:03:15.529Z,999.00
2023-04-12T11:04:15.687Z,999.09
2023-04-12T11:05:15.480Z,999.04
2023-04-12T11:06:27.035Z,999.10
2023-04-12T11:07:15.504Z,999.04
2023-04-12T11:08:15.559Z,999.01
2023-04-12T11:09:15.550Z,998.95
2023-04-12T11:10:15.616Z,998.89
2023-04-12T11:11:15.607Z,998.91
2023-04-12T11:12:15.682Z,998.89
2023-04-12T11:13:15.660Z,998.86
2023-04-12T11:14:15.688Z,998.86
2023-04-12T11:15:15.712Z,998.90
2023-04-12T11:16:15.867Z,998.84
2023-04-12T11:17:16.014Z,998.90
2023-04-12T11:18:15.856Z,998.81
2023-04-12T11:19:15.832Z,998.77
2023-04-12T11:20:15.858Z,998.74
2023-04-12T11:21:15.882Z,998.73
2023-04-12T11:22:15.950Z,998.70
2023-04-12T11:23:16.002Z,998.69
2023-04-12T11:24:16.024Z,998.72
2023-04-12T11:25:16.030Z,998.63
2023-04-12T11:26:16.037Z,998.70
2023-04-12T11:27:16.062Z,998.73
2023-04-12T11:28:27.790Z,998.67
2023-04-12T11:29:16.122Z,998.58
2023-04-12T11:30:16.146Z,998.65
2023-04-12T11:31:16.201Z,998.59
2023-04-12T11:32:16.316Z,998.65
2023-04-12T11:33:16.244Z,998.64
2023-04-12T11:34:16.268Z,998.71
2023-04-12T11:35:16.344Z,998.70
2023-04-12T11:36:16.322Z,998.75
2023-04-12T11:37:16.357Z,998.69
2023-04-12T11:38:16.389Z,998.67
2023-04-12T11:39:16.412Z,998.66
2023-04-12T11:40:16.462Z,998.57
2023-04-12T11:41:16.505Z,998.58
2023-04-12T11:42:16.502Z,998.48
2023-04-12T11:43:16.531Z,998.47
2023-04-12T11:44:16.559Z,998.45
2023-04-12T11:45:18.342Z,998.51
2023-04-12T11:46:16.666Z,998.56
2023-04-12T11:47:16.650Z,998.63
2023-04-12T11:48:16.707Z,998.46
2023-04-12T11:49:16.711Z,998.38
2023-04-12T11:50:16.742Z,998.49
2023-04-12T11:51:16.778Z,998.42
2023-04-12T11:52:16.817Z,998.36
2023-04-12T11:53:16.833Z,998.43
2023-04-12T11:54:16.864Z,998.26
2023-04-12T11:55:16.893Z,998.28
2023-04-12T11:56:16.926Z,998.37
2023-04-12T11:57:16.960Z,998.31
2023-04-12T11:58:16.984Z,998.22
2023-04-12T11:59:17.009Z,998.27
2023-04-12T12:00:17.034Z,998.26
2023-04-12T12:01:17.094Z,998.30
2023-04-12T12:02:23.425Z,998.31
2023-04-12T12:03:17.332Z,998.26
2023-04-12T12:04:17.346Z,998.27
2023-04-12T12:05:17.312Z,998.30
2023-04-12T12:06:17.521Z,998.20
2023-04-12T12:07:17.680Z,998.16
2023-04-12T12:08:17.256Z,998.20
2023-04-12T12:09:17.281Z,998.09